createdAt,value
2018-06-18T00:01:39.336Z,7.00
2018-06-18T00:06:41.997Z,9.00
2018-06-18T00:11:45.327Z,7.25
2018-06-18T00:16:47.950Z,10.00
2018-06-18T00:21:50.444Z,8.60
2018-06-18T00:26:52.949Z,9.00
2018-06-18T00:31:55.462Z,10.00
2018-06-18T00:36:58.132Z,8.00
2018-06-18T00:42:00.714Z,7.75
2018-06-18T00:47:03.267Z,10.50
2018-06-18T00:52:05.781Z,10.00
2018-06-18T00:57:08.345Z,10.50
2018-06-18T01:02:11.089Z,6.50
2018-06-18T01:07:13.832Z,10.00
2018-06-18T01:12:16.526Z,12.00
2018-06-18T01:17:19.280Z,11.20
2018-06-18T01:22:21.976Z,8.50
2018-06-18T01:27:24.503Z,9.75
2018-06-18T01:32:27.673Z,12.00
2018-06-18T01:37:30.472Z,10.00
2018-06-18T01:42:33.187Z,9.50
2018-06-18T01:47:35.681Z,12.20
2018-06-18T01:52:38.181Z,10.75
2018-06-18T01:57:40.848Z,12.00
2018-06-18T02:02:43.404Z,14.00
2018-06-18T02:07:46.000Z,10.75
2018-06-18T02:12:48.732Z,13.50
2018-06-18T02:17:51.252Z,13.75
2018-06-18T02:22:53.752Z,12.75
2018-06-18T02:28:01.735Z,13.75
2018-06-18T02:33:09.730Z,12.50
2018-06-18T02:38:17.847Z,13.00
2018-06-18T02:43:20.496Z,16.00
2018-06-18T02:48:23.027Z,13.60
2018-06-18T02:53:25.559Z,16.25
2018-06-18T02:58:28.196Z,12.20
2018-06-18T03:03:30.720Z,11.50
2018-06-18T03:08:33.339Z,13.75
2018-06-18T03:13:35.901Z,14.75
2018-06-18T03:18:43.927Z,14.75
2018-06-18T03:23:51.896Z,14.00
2018-06-18T03:28:59.787Z,15.75
2018-06-18T03:34:02.533Z,11.75
2018-06-18T03:39:07.136Z,13.40
2018-06-18T03:44:11.253Z,12.25
2018-06-18T03:49:13.917Z,15.00
2018-06-18T03:54:17.140Z,13.75
2018-06-18T03:59:19.821Z,13.67
2018-06-18T04:04:27.925Z,14.00
2018-06-18T04:09:35.955Z,14.50
2018-06-18T04:14:38.553Z,16.75
2018-06-18T04:19:41.106Z,13.50
2018-06-18T04:24:46.859Z,13.80
2018-06-18T04:29:50.062Z,17.75
2018-06-18T04:34:53.743Z,16.25
2018-06-18T04:39:56.683Z,17.00
2018-06-18T04:45:04.889Z,17.40
2018-06-18T04:50:13.290Z,18.00
2018-06-18T04:55:15.963Z,16.75
2018-06-18T05:00:21.108Z,14.75
2018-06-18T05:05:23.871Z,17.00
2018-06-18T05:10:27.431Z,18.00
2018-06-18T05:15:32.597Z,15.75
2018-06-18T05:20:35.372Z,16.00
2018-06-18T05:25:37.875Z,17.50
2018-06-18T05:30:40.600Z,17.25
2018-06-18T05:35:43.109Z,17.25
2018-06-18T05:40:45.625Z,15.25
2018-06-18T05:45:48.388Z,15.00
2018-06-18T05:50:51.222Z,18.00
2018-06-18T05:55:53.944Z,14.00
2018-06-18T06:00:56.565Z,14.60
2018-06-18T06:05:59.093Z,13.80
2018-06-18T06:11:01.680Z,15.80
2018-06-18T06:16:04.178Z,13.25
2018-06-18T06:21:08.948Z,17.00
2018-06-18T06:26:11.520Z,15.00
2018-06-18T06:31:14.245Z,13.00
2018-06-18T06:36:17.638Z,14.00
2018-06-18T06:41:20.900Z,15.75
2018-06-18T06:46:23.965Z,13.00
2018-06-18T06:51:26.809Z,16.25
2018-06-18T06:56:29.626Z,14.50
2018-06-18T07:01:32.753Z,16.00
2018-06-18T07:06:35.316Z,14.00
2018-06-18T07:11:38.554Z,14.25
2018-06-18T07:16:41.071Z,14.40
2018-06-18T07:21:43.641Z,15.80
2018-06-18T07:26:46.544Z,13.00
2018-06-18T07:31:49.144Z,13.25
2018-06-18T07:36:51.736Z,12.00
2018-06-18T07:41:54.292Z,10.50
2018-06-18T07:46:56.823Z,14.25
2018-06-18T07:51:59.919Z,13.00
2018-06-18T07:57:02.597Z,13.25
2018-06-18T08:02:05.394Z,15.00
2018-06-18T08:07:08.211Z,12.80
2018-06-18T08:12:10.708Z,12.50
2018-06-18T08:17:13.710Z,13.75
2018-06-18T08:22:16.254Z,11.00
2018-06-18T08:27:19.227Z,12.75
2018-06-18T08:32:22.396Z,11.75
2018-06-18T08:37:25.080Z,13.50
2018-06-18T08:42:27.860Z,13.75
2018-06-18T08:47:30.497Z,11.75
2018-06-18T08:52:38.452Z,11.00
2018-06-18T08:57:46.716Z,11.75
2018-06-18T09:02:55.138Z,12.25
2018-06-18T09:08:01.736Z,14.00
2018-06-18T09:13:04.433Z,12.50
2018-06-18T09:18:07.135Z,12.00
2018-06-18T09:23:10.607Z,11.40
2018-06-18T09:28:14.580Z,12.00
2018-06-18T09:33:17.343Z,11.00
2018-06-18T09:38:20.210Z,12.00
2018-06-18T09:43:23.430Z,12.80
2018-06-18T09:48:31.337Z,11.50
2018-06-18T09:53:39.292Z,8.50
2018-06-18T09:58:47.126Z,9.75
2018-06-18T10:03:50.246Z,9.25
2018-06-18T10:08:52.812Z,7.60
2018-06-18T10:13:55.447Z,8.25
2018-06-18T10:18:58.325Z,10.00
2018-06-18T10:24:00.895Z,10.00
2018-06-18T10:29:03.492Z,8.80
2018-06-18T10:34:11.555Z,8.75
2018-06-18T10:39:19.536Z,9.25
2018-06-18T10:44:22.140Z,8.75
2018-06-18T10:49:24.854Z,8.75
2018-06-18T10:54:28.545Z,10.40
2018-06-18T11:05:59.910Z,12.25
2018-06-18T11:07:30.019Z,12.40
2018-06-18T11:07:42.564Z,10.00
2018-06-18T11:07:55.223Z,11.00
2018-06-18T11:08:08.659Z,8.60
2018-06-18T11:08:21.379Z,10.00
2018-06-18T11:08:33.960Z,12.20
2018-06-18T11:08:46.474Z,11.50
2018-06-18T11:08:59.086Z,10.00
2018-06-18T11:16:13.151Z,10.40
2018-06-18T11:22:18.731Z,11.00
2018-06-18T11:24:06.681Z,10.40
2018-06-18T11:25:54.995Z,9.50
2018-06-18T11:28:03.009Z,10.75
2018-06-18T11:29:45.976Z,11.00
2018-06-18T11:31:28.970Z,11.00
2018-06-18T11:33:11.509Z,10.00
2018-06-18T11:34:54.194Z,10.20
2018-06-18T11:36:36.823Z,11.00
2018-06-18T11:38:19.645Z,13.40
2018-06-18T11:40:02.449Z,13.40
2018-06-18T11:41:45.056Z,11.00
2018-06-18T11:43:27.804Z,9.60
2018-06-18T11:45:10.296Z,9.00
2018-06-18T11:46:52.816Z,10.80
2018-06-18T11:48:35.364Z,9.60
2018-06-18T11:50:17.947Z,8.60
2018-06-18T11:52:00.596Z,10.80
2018-06-18T11:53:43.111Z,9.20
2018-06-18T11:55:25.695Z,10.00
2018-06-18T11:57:08.249Z,10.60
2018-06-18T11:58:56.225Z,10.00
2018-06-18T12:00:44.261Z,11.20
2018-06-18T12:02:32.076Z,11.00
2018-06-18T12:04:20.146Z,9.20
2018-06-18T12:06:08.179Z,8.75
2018-06-18T12:07:56.153Z,10.40
2018-06-18T12:09:41.478Z,7.60
2018-06-18T12:11:24.002Z,9.40
2018-06-18T12:13:06.690Z,8.40
2018-06-18T12:14:49.299Z,8.00
2018-06-18T12:16:35.348Z,10.80
2018-06-18T12:18:17.962Z,7.80
2018-06-18T12:20:00.500Z,11.00
2018-06-18T12:21:43.082Z,9.40
2018-06-18T12:23:25.571Z,8.20
2018-06-18T12:25:08.140Z,9.40
2018-06-18T12:26:50.668Z,10.00
2018-06-18T12:28:33.483Z,8.00
2018-06-18T12:30:15.985Z,9.50
2018-06-18T12:31:58.483Z,9.80
2018-06-18T12:33:41.415Z,9.80
2018-06-18T12:35:24.003Z,8.60
2018-06-18T12:37:06.601Z,8.00
2018-06-18T12:38:49.329Z,10.00
2018-06-18T12:40:32.054Z,8.60
2018-06-18T12:42:14.721Z,9.00
2018-06-18T12:43:58.364Z,8.80
2018-06-18T12:45:46.257Z,8.20
2018-06-18T12:47:34.105Z,9.00
2018-06-18T12:49:22.228Z,9.40
2018-06-18T12:51:10.328Z,9.00
2018-06-18T12:52:58.070Z,9.40
2018-06-18T12:54:46.160Z,9.20
2018-06-18T12:56:34.049Z,8.00
2018-06-18T12:58:16.619Z,7.40
2018-06-18T12:59:59.429Z,9.40
2018-06-18T13:01:43.561Z,7.40
2018-06-18T13:03:26.129Z,9.20
2018-06-18T13:05:08.563Z,7.40
2018-06-18T13:06:51.275Z,9.40
2018-06-18T13:08:33.944Z,8.80
2018-06-18T13:10:16.597Z,8.80
2018-06-18T13:11:59.121Z,7.40
2018-06-18T13:13:41.644Z,7.20
2018-06-18T13:15:24.156Z,8.25
2018-06-18T13:17:07.174Z,8.20
2018-06-18T13:18:49.785Z,7.80
2018-06-18T13:20:32.346Z,7.80
2018-06-18T13:22:15.287Z,8.80
2018-06-18T13:23:57.951Z,8.00
2018-06-18T13:25:40.629Z,9.00
2018-06-18T13:27:28.515Z,7.80
2018-06-18T13:29:11.163Z,8.60
2018-06-18T13:30:53.903Z,7.00
2018-06-18T13:32:36.435Z,8.00
2018-06-18T13:34:19.144Z,6.20
2018-06-18T13:36:01.813Z,7.20
2018-06-18T13:37:49.979Z,8.00
2018-06-18T13:39:37.908Z,8.00
2018-06-18T13:41:25.981Z,6.20
2018-06-18T13:43:13.805Z,7.00
2018-06-18T13:45:01.785Z,6.20
2018-06-18T13:46:49.733Z,8.75
2018-06-18T13:48:37.745Z,8.60
2018-06-18T13:50:20.404Z,7.60
2018-06-18T13:52:02.991Z,6.60
2018-06-18T13:53:45.661Z,8.80
2018-06-18T13:55:28.345Z,5.00
2018-06-18T13:57:11.181Z,7.20
2018-06-18T13:58:54.433Z,7.40
2018-06-18T14:00:37.127Z,7.20
2018-06-18T14:02:19.624Z,6.80
2018-06-18T14:04:02.161Z,5.80
2018-06-18T14:05:44.793Z,7.20
2018-06-18T14:07:27.698Z,7.00
2018-06-18T14:09:10.464Z,7.00
2018-06-18T14:10:53.307Z,7.00
2018-06-18T14:12:35.817Z,7.80
2018-06-18T14:14:18.564Z,7.40
2018-06-18T14:16:01.349Z,5.00
2018-06-18T14:17:44.003Z,6.40
2018-06-18T14:19:32.022Z,7.80
2018-06-18T14:21:14.657Z,8.75
2018-06-18T14:22:57.220Z,8.00
2018-06-18T14:24:40.010Z,7.60
2018-06-18T14:26:22.687Z,6.50
2018-06-18T14:28:05.254Z,5.80
2018-06-18T14:29:53.378Z,5.40
2018-06-18T14:31:41.671Z,7.60
2018-06-18T14:33:29.800Z,7.50
2018-06-18T14:35:17.745Z,7.00
2018-06-18T14:37:05.773Z,6.20
2018-06-18T14:38:53.745Z,6.00
2018-06-18T14:40:36.281Z,7.00
2018-06-18T14:42:19.840Z,6.00
2018-06-18T14:44:02.216Z,6.00
2018-06-18T14:45:44.921Z,6.80
2018-06-18T14:47:27.395Z,6.40
2018-06-18T14:49:09.892Z,7.00
2018-06-18T14:50:52.700Z,6.25
2018-06-18T14:52:35.434Z,7.00
2018-06-18T14:54:18.090Z,6.40
2018-06-18T14:56:35.249Z,7.20
2018-06-18T14:58:17.788Z,6.00
2018-06-18T15:00:02.090Z,6.00
2018-06-18T15:01:44.837Z,6.00
2018-06-18T15:03:27.442Z,6.00
2018-06-18T15:05:10.724Z,5.00
2018-06-18T15:06:53.489Z,5.60
2018-06-18T15:08:36.009Z,4.80
2018-06-18T15:10:18.588Z,4.00
2018-06-18T15:12:01.083Z,4.40
2018-06-18T15:17:23.735Z,4.00
2018-06-18T15:19:07.654Z,5.00
2018-06-18T15:20:52.471Z,3.25
2018-06-18T15:22:36.120Z,4.00
2018-06-18T15:24:59.017Z,4.20
2018-06-18T15:26:42.776Z,3.25
2018-06-18T15:28:26.331Z,3.00
2018-06-18T15:30:09.836Z,4.40
2018-06-18T15:31:53.899Z,2.60
2018-06-18T15:33:37.613Z,3.40
2018-06-18T15:35:21.035Z,5.50
2018-06-18T15:37:04.833Z,4.60
2018-06-18T15:38:48.416Z,3.00
2018-06-18T15:40:31.914Z,4.80
2018-06-18T15:42:15.425Z,3.00
2018-06-18T15:43:59.006Z,4.00
2018-06-18T15:45:42.538Z,3.50
2018-06-18T15:47:25.964Z,4.20
2018-06-18T15:49:09.411Z,6.00
2018-06-18T15:50:53.813Z,4.00
2018-06-18T15:52:45.243Z,5.00
2018-06-18T15:54:28.725Z,4.00
2018-06-18T15:56:12.356Z,4.00
2018-06-18T15:57:55.758Z,4.00
2018-06-18T15:59:39.336Z,5.40
2018-06-18T16:01:22.760Z,3.80
2018-06-18T16:03:06.559Z,5.80
2018-06-18T16:04:50.201Z,3.60
2018-06-18T16:06:33.688Z,4.00
2018-06-18T16:08:17.289Z,4.80
2018-06-18T16:10:00.897Z,4.60
2018-06-18T16:11:44.497Z,4.00
2018-06-18T16:13:28.068Z,5.00
2018-06-18T16:15:11.537Z,4.60
2018-06-18T16:16:55.021Z,5.00
2018-06-18T16:18:38.780Z,4.00
2018-06-18T16:20:22.344Z,4.00
2018-06-18T16:22:05.737Z,3.80
2018-06-18T16:23:49.348Z,4.00
2018-06-18T16:25:33.251Z,3.00
2018-06-18T16:27:17.002Z,4.00
2018-06-18T16:29:00.438Z,3.00
2018-06-18T16:30:44.012Z,4.75
2018-06-18T16:32:27.887Z,3.00
2018-06-18T16:34:11.400Z,5.00
2018-06-18T16:35:56.283Z,4.00
2018-06-18T16:37:39.795Z,3.40
2018-06-18T16:39:23.226Z,5.00
2018-06-18T16:41:07.136Z,4.40
2018-06-18T16:42:50.792Z,4.00
2018-06-18T16:44:34.233Z,4.00
2018-06-18T16:46:17.808Z,5.00
2018-06-18T16:48:01.208Z,4.20
2018-06-18T16:49:44.881Z,4.00
2018-06-18T16:51:28.304Z,4.00
2018-06-18T16:53:11.914Z,4.40
2018-06-18T16:54:56.109Z,4.00
2018-06-18T16:56:39.818Z,5.00
2018-06-18T16:58:23.398Z,3.40
2018-06-18T17:00:07.107Z,4.80
2018-06-18T17:01:50.529Z,5.60
2018-06-18T17:03:33.919Z,3.00
2018-06-18T17:05:17.376Z,5.00
2018-06-18T17:07:01.599Z,4.60
2018-06-18T17:08:45.239Z,6.20
2018-06-18T17:10:28.768Z,5.00
2018-06-18T17:12:12.453Z,4.80
2018-06-18T17:13:56.905Z,5.00
2018-06-18T17:15:40.304Z,4.75
2018-06-18T17:17:23.883Z,5.20
2018-06-18T17:19:07.340Z,3.20
2018-06-18T17:20:50.942Z,3.60
2018-06-18T17:22:34.433Z,3.60
2018-06-18T17:24:18.696Z,4.00
2018-06-18T17:26:02.184Z,5.00
2018-06-18T17:27:45.617Z,5.00
2018-06-18T17:29:29.070Z,3.40
2018-06-18T17:31:12.709Z,6.00
2018-06-18T17:32:56.297Z,3.00
2018-06-18T17:34:39.969Z,4.00
2018-06-18T17:36:23.698Z,3.00
2018-06-18T17:38:07.291Z,4.00
2018-06-18T17:39:50.784Z,5.60
2018-06-18T17:41:34.369Z,5.00
2018-06-18T17:43:17.864Z,4.60
2018-06-18T17:45:01.319Z,4.60
2018-06-18T17:46:44.924Z,4.00
2018-06-18T17:48:28.472Z,3.80
2018-06-18T17:50:12.001Z,3.40
2018-06-18T17:51:55.616Z,4.00
2018-06-18T17:53:39.094Z,3.00
2018-06-18T17:55:22.576Z,3.20
2018-06-18T17:57:06.722Z,4.40
2018-06-18T17:58:50.265Z,4.00
2018-06-18T18:00:33.640Z,4.40
2018-06-18T18:02:17.090Z,3.60
2018-06-18T18:04:00.489Z,4.40
2018-06-18T18:05:43.937Z,4.00
2018-06-18T18:07:28.484Z,4.40
2018-06-18T18:09:12.366Z,4.00
2018-06-18T18:10:55.898Z,3.00
2018-06-18T18:12:39.341Z,5.00
2018-06-18T18:14:23.017Z,4.00
2018-06-18T18:16:06.890Z,3.00
2018-06-18T18:17:50.289Z,3.80
2018-06-18T18:19:33.689Z,2.20
2018-06-18T18:21:17.978Z,4.00
2018-06-18T18:23:01.437Z,3.00
2018-06-18T18:24:45.098Z,3.00
2018-06-18T18:26:28.565Z,1.75
2018-06-18T18:28:12.008Z,3.20
2018-06-18T18:29:55.470Z,3.00
2018-06-18T18:31:39.108Z,3.00
2018-06-18T18:33:22.947Z,3.00
2018-06-18T18:35:07.353Z,2.17
2018-06-18T18:36:50.802Z,3.40
2018-06-18T18:38:34.220Z,2.80
2018-06-18T18:40:17.672Z,1.40
2018-06-18T18:42:01.227Z,2.80
2018-06-18T18:43:44.713Z,3.00
2018-06-18T18:45:28.249Z,3.25
2018-06-18T18:47:11.757Z,3.00
2018-06-18T18:48:55.168Z,3.00
2018-06-18T18:50:38.833Z,3.00
2018-06-18T18:52:23.265Z,3.20
2018-06-18T18:54:07.038Z,3.00
2018-06-18T18:56:03.043Z,3.00
2018-06-18T18:57:57.865Z,3.00
2018-06-18T18:59:42.873Z,3.00
2018-06-18T19:01:27.490Z,4.00
2018-06-18T19:03:10.921Z,2.20
2018-06-18T19:04:58.949Z,2.00
2018-06-18T19:06:42.604Z,3.00
2018-06-18T19:08:30.692Z,3.20
2018-06-18T19:10:20.991Z,3.00
2018-06-18T19:12:04.413Z,3.00
2018-06-18T19:13:48.289Z,3.40
2018-06-18T19:15:32.073Z,2.40
2018-06-18T19:17:15.699Z,3.40
2018-06-18T19:19:00.973Z,3.00
2018-06-18T19:20:49.243Z,2.75
2018-06-18T19:22:32.808Z,3.00
2018-06-18T19:24:16.221Z,3.40
2018-06-18T19:25:59.648Z,3.00
2018-06-18T19:27:43.384Z,3.40
2018-06-18T19:29:26.861Z,2.20
2018-06-18T19:31:14.789Z,3.50
2018-06-18T19:33:02.078Z,3.00
2018-06-18T19:34:45.995Z,3.20
2018-06-18T19:36:29.505Z,1.75
2018-06-18T19:38:12.909Z,4.00
2018-06-18T19:39:56.367Z,3.60
2018-06-18T19:41:40.000Z,2.00
2018-06-18T19:43:23.581Z,3.40
2018-06-18T19:45:10.178Z,4.40
2018-06-18T19:47:05.765Z,2.80
2018-06-18T19:49:04.909Z,3.20
2018-06-18T19:50:48.623Z,3.20
2018-06-18T19:52:32.110Z,2.40
2018-06-18T19:54:20.150Z,2.00
2018-06-18T19:56:03.831Z,2.75
2018-06-18T19:57:47.843Z,3.80
2018-06-18T19:59:31.227Z,3.80
2018-06-18T20:01:14.724Z,2.00
2018-06-18T20:02:58.178Z,2.00
2018-06-18T20:04:41.818Z,3.20
2018-06-18T20:06:25.514Z,3.25
2018-06-18T20:08:14.883Z,3.00
2018-06-18T20:09:58.302Z,3.80
2018-06-18T20:11:42.387Z,3.40
2018-06-18T20:13:25.999Z,2.80
2018-06-18T20:15:13.232Z,2.60
2018-06-18T20:16:56.845Z,2.00
2018-06-18T20:18:40.231Z,3.00
2018-06-18T20:20:23.874Z,3.00
2018-06-18T20:22:07.912Z,3.00
2018-06-18T20:23:51.400Z,3.00
2018-06-18T20:25:40.120Z,3.00
2018-06-18T20:27:23.701Z,2.60
2018-06-18T20:29:07.567Z,2.00
2018-06-18T20:30:51.419Z,2.00
2018-06-18T20:32:35.127Z,3.20
2018-06-18T20:34:18.896Z,3.40
2018-06-18T20:36:05.564Z,4.00
2018-06-18T20:37:49.408Z,3.00
2018-06-18T20:39:32.900Z,3.80
2018-06-18T20:41:16.392Z,2.50
2018-06-18T20:42:59.832Z,3.00
2018-06-18T20:44:43.412Z,3.20
2018-06-18T20:46:27.433Z,4.00
2018-06-18T20:48:11.029Z,3.00
2018-06-18T20:49:54.752Z,3.00
2018-06-18T20:51:38.239Z,3.25
2018-06-18T20:53:21.650Z,5.00
2018-06-18T20:55:06.009Z,4.00
2018-06-18T20:56:49.578Z,3.00
2018-06-18T20:58:33.469Z,4.20
2018-06-18T21:00:16.977Z,3.50
2018-06-18T21:02:01.622Z,3.00
2018-06-18T21:03:45.812Z,3.20
2018-06-18T21:05:29.345Z,3.75
2018-06-18T21:07:12.928Z,3.60
2018-06-18T21:08:56.737Z,3.00
2018-06-18T21:10:41.541Z,4.00
2018-06-18T21:12:25.012Z,4.00
2018-06-18T21:14:09.769Z,4.00
2018-06-18T21:15:53.406Z,4.00
2018-06-18T21:17:37.094Z,4.00
2018-06-18T21:19:20.510Z,4.20
2018-06-18T21:21:04.077Z,4.00
2018-06-18T21:22:47.654Z,3.40
2018-06-18T21:24:32.264Z,3.80
2018-06-18T21:26:16.268Z,3.25
2018-06-18T21:28:00.086Z,4.00
2018-06-18T21:29:43.807Z,5.20
2018-06-18T21:31:27.513Z,3.25
2018-06-18T21:33:11.053Z,4.60
2018-06-18T21:34:54.708Z,3.20
2018-06-18T21:36:38.616Z,4.00
2018-06-18T21:38:22.012Z,4.00
2018-06-18T21:40:05.698Z,4.20
2018-06-18T21:41:49.402Z,3.00
2018-06-18T21:43:33.022Z,5.00
2018-06-18T21:45:19.452Z,4.00
2018-06-18T21:47:03.026Z,4.20
2018-06-18T21:48:46.662Z,3.20
2018-06-18T21:50:30.287Z,4.60
2018-06-18T21:52:14.025Z,3.00
2018-06-18T21:53:57.754Z,5.20
2018-06-18T21:55:41.437Z,4.00
2018-06-18T21:57:24.941Z,3.60
2018-06-18T21:59:08.553Z,5.20
2018-06-18T22:00:53.497Z,3.80
2018-06-18T22:02:37.042Z,6.00
2018-06-18T22:04:20.510Z,5.20
2018-06-18T22:06:04.105Z,3.20
2018-06-18T22:07:47.712Z,5.80
2018-06-18T22:09:31.357Z,4.00
2018-06-18T22:11:14.816Z,3.80
2018-06-18T22:12:58.458Z,5.00
2018-06-18T22:14:42.096Z,6.00
2018-06-18T22:16:25.742Z,3.00
2018-06-18T22:18:09.366Z,3.80
2018-06-18T22:19:53.071Z,3.40
2018-06-18T22:21:37.005Z,3.25
2018-06-18T22:23:20.735Z,4.60
2018-06-18T22:25:04.326Z,4.00
2018-06-18T22:26:47.860Z,5.00
2018-06-18T22:28:35.973Z,4.00
2018-06-18T22:30:19.449Z,3.25
2018-06-18T22:32:03.168Z,5.00
2018-06-18T22:33:47.641Z,6.60
2018-06-18T22:35:31.652Z,5.00
2018-06-18T22:37:15.209Z,4.40
2018-06-18T22:38:58.672Z,4.00
2018-06-18T22:40:42.267Z,3.75
2018-06-18T22:42:26.036Z,3.60
2018-06-18T22:44:10.462Z,4.00
2018-06-18T22:45:54.051Z,5.00
2018-06-18T22:47:37.665Z,5.00
2018-06-18T22:49:21.420Z,3.60
2018-06-18T22:51:05.113Z,5.40
2018-06-18T22:52:48.866Z,3.60
2018-06-18T22:54:32.615Z,5.00
2018-06-18T22:56:16.325Z,2.75
2018-06-18T22:58:00.864Z,3.00
2018-06-18T22:59:44.616Z,3.20
2018-06-18T23:01:28.217Z,6.50
2018-06-18T23:03:11.609Z,5.00
2018-06-18T23:04:55.412Z,4.60
2018-06-18T23:06:38.789Z,4.75
2018-06-18T23:08:22.378Z,5.20
2018-06-18T23:10:05.812Z,5.00
2018-06-18T23:11:49.337Z,5.40
2018-06-18T23:13:34.717Z,6.20
2018-06-18T23:15:18.085Z,5.50
2018-06-18T23:17:01.522Z,5.60
2018-06-18T23:18:45.168Z,4.00
2018-06-18T23:20:28.600Z,4.00
2018-06-18T23:22:12.175Z,4.60
2018-06-18T23:23:55.600Z,4.00
2018-06-18T23:25:39.276Z,4.75
2018-06-18T23:27:22.696Z,4.60
2018-06-18T23:29:08.622Z,5.40
2018-06-18T23:30:52.244Z,6.00
2018-06-18T23:32:35.793Z,5.00
2018-06-18T23:34:19.236Z,3.40
2018-06-18T23:36:02.862Z,4.25
2018-06-18T23:37:46.366Z,4.00
2018-06-18T23:39:29.781Z,3.80
2018-06-18T23:41:13.224Z,6.00
2018-06-18T23:42:56.671Z,4.00
2018-06-18T23:44:40.358Z,6.40
2018-06-18T23:46:24.064Z,4.75
2018-06-18T23:48:07.570Z,6.40
2018-06-18T23:49:50.980Z,5.80
2018-06-18T23:51:34.438Z,5.00
2018-06-18T23:53:17.857Z,5.00
2018-06-18T23:55:01.508Z,5.80
2018-06-18T23:56:45.154Z,4.80
2018-06-18T23:58:29.325Z,8.60
